Time;durP1;ratioP1;P1;durP2;ratioP2;P2;SDS_P1;SDS_P2;PMS_P1;PMS_P2;Temp;Humidity;BMP_temperature;BMP_pressure;BME280_temperature;BME280_humidity;BME280_pressure;Samples;Min_cycle;Max_cycle;Signal;HPM_P1;HPM_P2
2023/06/18 00:01:04;;;;;;;25.73;21.27;;;15.40;99.90;;;;;;5038502;28;20872;-72
2023/06/18 00:03:30;;;;;;;26.80;19.63;;;15.50;99.90;;;;;;5057786;28;20036;-75
2023/06/18 00:05:56;;;;;;;24.30;21.25;;;15.50;99.90;;;;;;5052753;28;20051;-77
2023/06/18 00:08:22;;;;;;;27.13;21.52;;;15.40;99.90;;;;;;5056423;28;20036;-79
2023/06/18 00:10:48;;;;;;;26.25;20.65;;;15.40;99.90;;;;;;5058422;28;20156;-77
2023/06/18 00:13:14;;;;;;;23.15;20.75;;;15.40;99.90;;;;;;5059532;28;21794;-75
2023/06/18 00:15:40;;;;;;;26.83;22.20;;;15.40;99.90;;;;;;5060616;28;20072;-78
2023/06/18 00:18:06;;;;;;;24.63;20.73;;;15.20;99.90;;;;;;5041372;28;20072;-73
2023/06/18 00:20:32;;;;;;;24.95;21.08;;;15.20;99.90;;;;;;5022387;28;20492;-70
2023/06/18 00:22:59;;;;;;;27.35;20.58;;;15.20;99.90;;;;;;5061835;28;20044;-74
2023/06/18 00:25:26;;;;;;;22.02;18.65;;;15.10;99.90;;;;;;5045107;28;20028;-83
2023/06/18 00:27:51;;;;;;;22.98;20.08;;;15.00;99.90;;;;;;5059194;28;20041;-76
2023/06/18 00:30:17;;;;;;;21.77;19.25;;;14.90;99.90;;;;;;5069455;28;20040;-76
2023/06/18 00:32:44;;;;;;;27.30;20.77;;;14.90;99.90;;;;;;5053510;28;20048;-74
2023/06/18 00:35:17;;;;;;;22.05;19.42;;;14.80;99.90;;;;;;5027542;28;20041;-74
2023/06/18 00:37:43;;;;;;;22.65;18.88;;;14.70;99.90;;;;;;5062289;28;20060;-75
2023/06/18 00:40:14;;;;;;;23.08;19.70;;;14.70;99.90;;;;;;5059055;28;20039;-74
2023/06/18 00:42:41;;;;;;;22.63;18.90;;;14.70;99.90;;;;;;5065911;28;20492;-74
2023/06/18 00:45:08;;;;;;;20.80;17.90;;;14.50;99.90;;;;;;5064898;28;20060;-72
2023/06/18 00:47:40;;;;;;;20.60;17.88;;;14.40;99.90;;;;;;5086904;28;20412;-77
2023/06/18 00:50:06;;;;;;;20.67;17.33;;;14.30;99.90;;;;;;5037886;28;20056;-73
2023/06/18 00:52:36;;;;;;;23.13;19.13;;;14.40;99.90;;;;;;5046546;28;20068;-74
2023/06/18 00:55:03;;;;;;;20.90;18.38;;;14.40;99.90;;;;;;5059803;28;20056;-72
2023/06/18 00:57:31;;;;;;;22.00;18.20;;;14.40;99.90;;;;;;5055038;28;20120;-75
2023/06/18 00:59:57;;;;;;;22.45;19.58;;;14.40;99.90;;;;;;5051555;28;20051;-78
2023/06/18 01:02:25;;;;;;;23.02;19.58;;;14.50;99.90;;;;;;5063135;28;20127;-79
2023/06/18 01:04:56;;;;;;;23.75;20.02;;;14.60;99.90;;;;;;5068161;28;20124;-78
2023/06/18 01:07:23;;;;;;;25.05;19.40;;;14.50;99.90;;;;;;5064112;28;20079;-80
2023/06/18 01:09:53;;;;;;;22.73;18.27;;;14.50;99.90;;;;;;5063663;28;20552;-77
2023/06/18 01:12:27;;;;;;;19.63;17.63;;;14.50;99.90;;;;;;5081543;28;21700;-75
2023/06/18 01:14:56;;;;;;;20.05;17.90;;;14.40;99.90;;;;;;5049946;28;20037;-74
2023/06/18 01:17:29;;;;;;;22.73;18.65;;;14.50;99.90;;;;;;5043305;28;20539;-75
2023/06/18 01:20:09;;;;;;;18.67;16.30;;;14.40;99.90;;;;;;5062638;28;20041;-80
2023/06/18 01:22:37;;;;;;;17.98;16.05;;;14.30;99.90;;;;;;5064762;28;20608;-78
2023/06/18 01:25:05;;;;;;;19.20;16.00;;;14.20;99.90;;;;;;5059543;28;20120;-73
2023/06/18 01:27:40;;;;;;;17.60;15.60;;;14.20;99.90;;;;;;5049807;28;20123;-71
2023/06/18 01:30:09;;;;;;;17.70;15.55;;;14.20;99.90;;;;;;5038185;28;20041;-76
2023/06/18 01:32:36;;;;;;;16.23;14.48;;;14.10;99.90;;;;;;5044224;28;20040;-73
2023/06/18 01:35:05;;;;;;;16.20;14.15;;;14.10;99.90;;;;;;5051012;28;20044;-77
2023/06/18 01:38:06;;;;;;;17.20;14.80;;;14.10;99.90;;;;;;5024926;28;20040;-73
2023/06/18 01:40:53;;;;;;;18.30;15.55;;;14.10;99.90;;;;;;5061339;28;20040;-73
2023/06/18 01:43:36;;;;;;;19.23;15.18;;;14.10;99.90;;;;;;5062251;28;20408;-74
2023/06/18 01:46:04;;;;;;;21.27;17.08;;;14.20;99.90;;;;;;5039396;28;20040;-76
2023/06/18 01:48:41;;;;;;;19.15;16.83;;;14.30;99.90;;;;;;5059155;28;20714;-73
2023/06/18 01:51:07;;;;;;;18.98;16.85;;;14.20;99.90;;;;;;5061561;28;20581;-73
2023/06/18 01:53:35;;;;;;;23.40;18.42;;;14.20;99.90;;;;;;5034687;28;20045;-74
2023/06/18 01:56:02;;;;;;;23.10;20.02;;;14.30;99.90;;;;;;5059868;28;20048;-73
2023/06/18 01:58:32;;;;;;;22.88;19.15;;;14.30;99.90;;;;;;5058574;28;20036;-75
2023/06/18 02:00:58;;;;;;;25.60;20.02;;;14.20;99.90;;;;;;5039886;28;20522;-74
2023/06/18 02:03:24;;;;;;;22.95;19.23;;;14.40;99.90;;;;;;5078300;28;20040;-80
2023/06/18 02:05:50;;;;;;;17.92;16.00;;;14.10;99.90;;;;;;5065896;28;20053;-73
2023/06/18 02:08:17;;;;;;;19.83;17.73;;;13.90;99.90;;;;;;5040239;28;20128;-76
2023/06/18 02:10:43;;;;;;;21.33;17.40;;;13.70;99.90;;;;;;5057383;28;20040;-76
2023/06/18 02:13:09;;;;;;;20.33;17.90;;;13.60;99.90;;;;;;5061828;28;20072;-72
2023/06/18 02:15:35;;;;;;;17.73;15.82;;;13.40;99.90;;;;;;5050322;28;20036;-71
2023/06/18 02:18:01;;;;;;;19.67;15.57;;;13.40;99.90;;;;;;5059571;28;20037;-76
2023/06/18 02:20:27;;;;;;;21.35;17.05;;;13.60;99.90;;;;;;5051324;28;20029;-75
2023/06/18 02:22:52;;;;;;;39.33;18.67;;;13.60;99.90;;;;;;5055616;28;20448;-77
2023/06/18 02:25:19;;;;;;;35.75;17.40;;;13.60;99.90;;;;;;5023328;28;20036;-72
2023/06/18 02:27:57;;;;;;;72.90;19.05;;;13.70;99.90;;;;;;5054026;28;20037;-75
2023/06/18 02:30:24;;;;;;;45.42;19.08;;;13.80;99.90;;;;;;5042775;28;20040;-71
2023/06/18 02:32:50;;;;;;;37.78;19.38;;;13.90;99.90;;;;;;5069752;28;20068;-74
2023/06/18 02:35:16;;;;;;;57.35;19.65;;;14.00;99.90;;;;;;5064758;28;20094;-73
2023/06/18 02:37:42;;;;;;;42.22;18.17;;;14.10;99.90;;;;;;5041336;28;20032;-72
2023/06/18 02:40:11;;;;;;;38.38;18.08;;;14.10;99.90;;;;;;5027733;28;20056;-76
2023/06/18 02:42:37;;;;;;;33.90;18.27;;;14.00;99.90;;;;;;5038148;28;20040;-72
2023/06/18 02:45:04;;;;;;;33.15;19.05;;;14.20;99.90;;;;;;5068703;28;20550;-75
2023/06/18 02:47:29;;;;;;;61.42;20.50;;;14.10;99.90;;;;;;5032573;28;20098;-72
2023/06/18 02:49:55;;;;;;;42.13;19.60;;;14.20;99.90;;;;;;5027012;28;20072;-78
2023/06/18 02:52:21;;;;;;;48.00;21.02;;;14.20;99.90;;;;;;5055679;28;20045;-77
2023/06/18 02:54:46;;;;;;;30.92;19.40;;;14.20;99.90;;;;;;5055439;28;20052;-74
2023/06/18 02:57:12;;;;;;;26.85;18.65;;;14.20;99.90;;;;;;5055667;28;20087;-76
2023/06/18 02:59:38;;;;;;;38.38;21.55;;;14.20;99.90;;;;;;5038233;28;20044;-74
2023/06/18 03:02:04;;;;;;;27.60;18.85;;;14.30;99.90;;;;;;5029752;28;20120;-75
2023/06/18 03:04:30;;;;;;;29.60;18.45;;;14.30;99.90;;;;;;5067059;28;20037;-75
2023/06/18 03:06:59;;;;;;;27.08;17.60;;;14.20;99.90;;;;;;5035064;28;20072;-75
2023/06/18 03:09:27;;;;;;;24.20;18.15;;;14.30;99.90;;;;;;5059773;28;20036;-75
2023/06/18 03:11:52;;;;;;;32.00;17.50;;;14.20;99.90;;;;;;5049661;28;20080;-76
2023/06/18 03:14:21;;;;;;;33.47;17.38;;;14.30;99.90;;;;;;5058861;28;20060;-77
2023/06/18 03:16:47;;;;;;;25.85;16.85;;;14.40;99.90;;;;;;5059023;28;20044;-77
2023/06/18 03:19:13;;;;;;;44.50;19.30;;;14.30;99.90;;;;;;5032298;28;20455;-75
2023/06/18 03:21:39;;;;;;;25.73;17.90;;;14.40;99.90;;;;;;5075792;28;20041;-77
2023/06/18 03:24:06;;;;;;;28.60;18.35;;;14.40;99.90;;;;;;5028972;28;20033;-75
2023/06/18 03:26:36;;;;;;;33.90;17.50;;;14.50;99.90;;;;;;5052302;28;20044;-76
2023/06/18 03:29:05;;;;;;;41.65;16.63;;;14.50;99.90;;;;;;5045635;28;20118;-73
2023/06/18 03:31:32;;;;;;;56.30;18.88;;;14.30;99.90;;;;;;5048533;28;20033;-73
2023/06/18 03:34:01;;;;;;;44.50;18.67;;;14.40;99.90;;;;;;5056256;28;20511;-73
2023/06/18 03:36:28;;;;;;;30.85;18.13;;;14.40;99.90;;;;;;5052787;28;20043;-73
2023/06/18 03:38:55;;;;;;;22.85;17.20;;;14.30;99.90;;;;;;5076683;28;20089;-78
2023/06/18 03:41:21;;;;;;;26.60;18.85;;;14.30;99.90;;;;;;5044034;28;20076;-77
2023/06/18 03:43:47;;;;;;;36.33;19.25;;;14.30;99.90;;;;;;5074143;28;20098;-73
2023/06/18 03:46:13;;;;;;;35.00;18.63;;;14.60;99.90;;;;;;5037809;28;20041;-74
2023/06/18 03:48:39;;;;;;;48.53;20.98;;;14.40;99.90;;;;;;5055793;28;20095;-71
2023/06/18 03:51:05;;;;;;;48.53;18.08;;;14.50;99.90;;;;;;5034380;28;20487;-73
2023/06/18 03:53:36;;;;;;;43.70;18.45;;;14.50;99.90;;;;;;5056201;28;20036;-77
2023/06/18 03:56:03;;;;;;;49.55;17.00;;;14.40;99.90;;;;;;5039318;28;20127;-75
2023/06/18 03:58:30;;;;;;;52.70;19.02;;;14.50;99.90;;;;;;5073953;28;20095;-76
2023/06/18 04:00:56;;;;;;;165.27;23.20;;;14.60;99.90;;;;;;5070769;28;20047;-77
2023/06/18 04:03:22;;;;;;;56.28;19.27;;;14.60;99.90;;;;;;5028017;28;20044;-76
2023/06/18 04:05:48;;;;;;;37.90;17.00;;;14.70;99.90;;;;;;5036482;28;20048;-77
2023/06/18 04:08:15;;;;;;;54.80;18.65;;;14.80;99.90;;;;;;5062808;28;20123;-74
2023/06/18 04:10:41;;;;;;;50.22;18.55;;;14.80;99.90;;;;;;5037812;28;20083;-73
2023/06/18 04:13:07;;;;;;;42.28;19.33;;;14.80;99.90;;;;;;5091419;28;20068;-75
2023/06/18 04:15:33;;;;;;;36.10;17.48;;;14.70;99.90;;;;;;5039057;28;20087;-72
2023/06/18 04:17:58;;;;;;;41.03;17.23;;;14.70;99.90;;;;;;5068887;28;20044;-73
2023/06/18 04:20:24;;;;;;;37.15;15.60;;;14.90;99.90;;;;;;5056596;28;20091;-77
2023/06/18 04:22:50;;;;;;;49.60;16.80;;;14.70;99.90;;;;;;5049661;28;20037;-74
2023/06/18 04:25:16;;;;;;;25.38;13.75;;;14.80;99.90;;;;;;5038946;28;20102;-78
2023/06/18 04:27:42;;;;;;;45.40;16.98;;;14.80;99.90;;;;;;5052779;28;20025;-76
2023/06/18 04:30:08;;;;;;;30.63;16.75;;;14.60;99.90;;;;;;5063057;28;20075;-79
2023/06/18 04:32:34;;;;;;;34.65;15.00;;;14.70;99.90;;;;;;5088512;28;20041;-79
2023/06/18 04:35:00;;;;;;;70.90;16.85;;;14.70;99.90;;;;;;5045512;28;20358;-75
2023/06/18 04:37:26;;;;;;;22.27;15.30;;;14.90;99.90;;;;;;5042069;28;20039;-74
2023/06/18 04:39:51;;;;;;;37.08;17.00;;;15.00;99.90;;;;;;5038493;28;20036;-75
2023/06/18 04:42:17;;;;;;;43.00;15.75;;;14.90;99.90;;;;;;5063336;28;20044;-77
2023/06/18 04:44:43;;;;;;;28.60;14.95;;;15.20;99.90;;;;;;5068592;28;20049;-76
2023/06/18 04:47:09;;;;;;;21.05;13.43;;;15.00;99.90;;;;;;5047609;28;20035;-76
2023/06/18 04:49:34;;;;;;;21.65;14.30;;;15.10;99.90;;;;;;5035857;28;20066;-78
2023/06/18 04:52:00;;;;;;;17.80;13.85;;;15.10;99.90;;;;;;5030359;28;20518;-80
2023/06/18 04:54:26;;;;;;;15.25;13.57;;;15.30;99.90;;;;;;5039841;28;20057;-75
2023/06/18 04:56:52;;;;;;;14.93;13.35;;;15.30;99.90;;;;;;5046342;28;20045;-74
2023/06/18 04:59:19;;;;;;;14.32;12.75;;;15.30;99.90;;;;;;5051022;28;20771;-80
2023/06/18 05:01:44;;;;;;;13.05;11.43;;;15.20;99.90;;;;;;5052318;28;20045;-78
2023/06/18 05:04:10;;;;;;;13.98;12.55;;;15.30;99.90;;;;;;5032886;28;20048;-74
2023/06/18 05:06:36;;;;;;;13.70;12.23;;;15.20;99.90;;;;;;5060176;28;20064;-73
2023/06/18 05:09:02;;;;;;;13.25;11.85;;;15.30;99.90;;;;;;5049769;28;20043;-76
2023/06/18 05:11:28;;;;;;;14.15;12.75;;;15.30;99.90;;;;;;5049373;28;20911;-72
2023/06/18 05:13:53;;;;;;;16.75;12.35;;;15.40;99.90;;;;;;5042719;28;20040;-72
2023/06/18 05:16:19;;;;;;;14.27;12.77;;;15.40;99.90;;;;;;5043688;28;20465;-75
2023/06/18 05:18:45;;;;;;;13.32;11.93;;;15.50;99.90;;;;;;5030987;28;20128;-73
2023/06/18 05:21:10;;;;;;;13.77;11.63;;;15.40;99.90;;;;;;5035634;28;20043;-76
2023/06/18 05:23:36;;;;;;;13.63;12.20;;;15.50;99.90;;;;;;5057861;28;20047;-72
2023/06/18 05:26:02;;;;;;;14.48;12.98;;;15.50;99.90;;;;;;5033493;28;20393;-76
2023/06/18 05:28:27;;;;;;;15.43;13.25;;;15.60;99.90;;;;;;5038000;28;20086;-72
2023/06/18 05:30:53;;;;;;;14.77;12.85;;;15.70;99.90;;;;;;5042185;28;20526;-73
2023/06/18 05:33:19;;;;;;;14.60;13.02;;;15.90;99.90;;;;;;5056748;28;20487;-75
2023/06/18 05:35:45;;;;;;;15.32;13.73;;;15.80;99.90;;;;;;5043243;28;20033;-77
2023/06/18 05:38:11;;;;;;;14.55;12.30;;;15.90;99.90;;;;;;5042720;28;20033;-77
2023/06/18 05:40:37;;;;;;;15.90;12.38;;;16.00;99.90;;;;;;5050033;28;20033;-78
2023/06/18 05:43:02;;;;;;;15.30;13.82;;;16.00;99.90;;;;;;5083861;28;20056;-77
2023/06/18 05:45:28;;;;;;;15.30;13.70;;;16.00;99.90;;;;;;5065165;28;20346;-75
2023/06/18 05:47:53;;;;;;;13.90;12.50;;;16.10;99.90;;;;;;5036302;28;20040;-75
2023/06/18 05:50:19;;;;;;;15.60;13.13;;;16.20;99.90;;;;;;5046943;28;20040;-77
2023/06/18 05:52:45;;;;;;;14.32;12.93;;;16.20;99.90;;;;;;5057030;28;20057;-74
2023/06/18 05:55:11;;;;;;;13.77;12.38;;;16.10;99.90;;;;;;5039896;28;20106;-76
2023/06/18 05:57:37;;;;;;;14.00;12.50;;;16.10;99.90;;;;;;5051875;28;20080;-76
2023/06/18 06:00:04;;;;;;;14.45;12.98;;;16.20;99.90;;;;;;5063619;28;20072;-75
2023/06/18 06:02:29;;;;;;;14.13;12.55;;;16.20;99.90;;;;;;5032691;28;20199;-73
2023/06/18 06:04:55;;;;;;;14.07;12.68;;;16.20;99.90;;;;;;5032830;28;20052;-75
2023/06/18 06:07:21;;;;;;;15.35;13.73;;;16.40;99.90;;;;;;5055013;28;20037;-74
2023/06/18 06:09:47;;;;;;;16.58;12.90;;;16.50;99.90;;;;;;5059928;28;20116;-77
2023/06/18 06:12:13;;;;;;;13.50;12.13;;;16.50;99.90;;;;;;5057960;28;20132;-78
2023/06/18 06:14:39;;;;;;;16.30;14.60;;;16.70;99.90;;;;;;5043071;28;20032;-75
2023/06/18 06:17:05;;;;;;;15.77;13.65;;;16.60;99.90;;;;;;5055815;28;20037;-78
2023/06/18 06:19:30;;;;;;;14.40;12.88;;;16.70;99.90;;;;;;5057043;28;20048;-75
2023/06/18 06:21:56;;;;;;;15.95;14.25;;;16.70;99.90;;;;;;5034613;28;20417;-78
2023/06/18 06:24:22;;;;;;;15.63;13.57;;;16.90;99.90;;;;;;5028653;28;20040;-76
2023/06/18 06:26:48;;;;;;;14.75;12.80;;;17.10;99.90;;;;;;5069830;28;20523;-77
2023/06/18 06:29:13;;;;;;;15.60;13.57;;;17.00;99.90;;;;;;5051308;28;20037;-74
2023/06/18 06:31:39;;;;;;;15.98;14.02;;;17.00;99.90;;;;;;5055000;28;20124;-76
2023/06/18 06:34:05;;;;;;;15.07;13.48;;;17.20;99.90;;;;;;5076743;28;20047;-74
2023/06/18 06:36:31;;;;;;;15.95;14.25;;;17.30;99.90;;;;;;5030988;28;20047;-72
2023/06/18 06:38:56;;;;;;;16.90;15.13;;;17.30;99.90;;;;;;5034413;28;20037;-71
2023/06/18 06:41:23;;;;;;;16.67;14.82;;;17.50;99.90;;;;;;5065544;28;20133;-74
2023/06/18 06:43:48;;;;;;;17.15;15.45;;;17.60;99.90;;;;;;5037794;28;20041;-75
2023/06/18 06:46:14;;;;;;;17.73;15.85;;;17.60;99.90;;;;;;5055684;28;20531;-72
2023/06/18 06:48:40;;;;;;;17.15;15.35;;;17.80;99.90;;;;;;5073530;28;20128;-76
2023/06/18 06:51:06;;;;;;;17.45;15.65;;;17.80;99.90;;;;;;5038076;28;20048;-74
2023/06/18 06:53:32;;;;;;;16.85;15.05;;;18.10;99.90;;;;;;5039880;28;20051;-72
2023/06/18 06:55:57;;;;;;;19.27;17.10;;;18.20;99.90;;;;;;5051877;28;20056;-74
2023/06/18 06:58:23;;;;;;;19.65;17.55;;;18.40;99.90;;;;;;5041064;28;20037;-74
2023/06/18 07:00:49;;;;;;;18.92;16.92;;;18.40;99.90;;;;;;5034547;28;20041;-72
2023/06/18 07:03:14;;;;;;;16.30;14.57;;;18.60;99.90;;;;;;5063077;28;20036;-75
2023/06/18 07:05:40;;;;;;;16.80;15.07;;;18.80;99.90;;;;;;5088083;28;20045;-75
2023/06/18 07:08:06;;;;;;;18.58;16.58;;;19.00;99.90;;;;;;5026651;28;20045;-71
2023/06/18 07:10:33;;;;;;;17.73;15.93;;;18.90;99.90;;;;;;5055916;28;20115;-67
2023/06/18 07:12:59;;;;;;;17.98;16.17;;;19.10;99.90;;;;;;5059611;28;20032;-67
2023/06/18 07:15:24;;;;;;;19.08;16.88;;;19.30;99.90;;;;;;5050995;28;20397;-70
2023/06/18 07:17:50;;;;;;;16.80;15.07;;;19.20;99.90;;;;;;5056756;28;20075;-72
2023/06/18 07:20:16;;;;;;;16.85;15.05;;;19.70;99.90;;;;;;5062107;28;20033;-70
2023/06/18 07:22:42;;;;;;;17.20;15.35;;;19.90;99.90;;;;;;5030719;28;20470;-72
2023/06/18 07:25:08;;;;;;;16.60;14.88;;;19.80;99.90;;;;;;5013437;28;20047;-72
2023/06/18 07:27:35;;;;;;;17.13;14.68;;;20.00;99.90;;;;;;5044968;28;20040;-72
2023/06/18 07:30:00;;;;;;;18.10;15.63;;;19.80;99.90;;;;;;5059827;28;20041;-70
2023/06/18 07:32:26;;;;;;;15.88;14.23;;;19.70;99.90;;;;;;5066069;28;20049;-73
2023/06/18 07:34:52;;;;;;;15.93;14.32;;;19.60;99.90;;;;;;5032910;28;20045;-71
2023/06/18 07:37:18;;;;;;;16.98;15.25;;;19.90;99.90;;;;;;5069916;28;21829;-75
2023/06/18 07:39:43;;;;;;;16.83;15.02;;;19.80;99.90;;;;;;5047338;28;20439;-72
2023/06/18 07:42:09;;;;;;;16.20;14.48;;;19.90;99.90;;;;;;5058359;28;20033;-72
2023/06/18 07:44:35;;;;;;;16.40;14.27;;;20.10;99.90;;;;;;5046725;28;20066;-73
2023/06/18 07:47:01;;;;;;;17.48;14.77;;;20.40;99.90;;;;;;5058283;28;20121;-73
2023/06/18 07:49:27;;;;;;;15.50;13.90;;;20.60;99.90;;;;;;5038905;28;20055;-73
2023/06/18 07:51:54;;;;;;;16.08;14.30;;;20.50;99.90;;;;;;5074326;28;20048;-74
2023/06/18 07:54:21;;;;;;;16.65;14.40;;;20.60;99.90;;;;;;5056834;28;20053;-72
2023/06/18 07:56:46;;;;;;;15.20;13.60;;;20.60;99.90;;;;;;5046701;28;20044;-71
2023/06/18 07:59:12;;;;;;;15.15;12.68;;;20.80;99.90;;;;;;5053568;28;20093;-72
2023/06/18 08:01:38;;;;;;;17.80;14.50;;;20.90;99.90;;;;;;5030117;28;20048;-72
2023/06/18 08:04:04;;;;;;;15.85;14.23;;;21.00;99.90;;;;;;5036697;28;20047;-71
2023/06/18 08:06:30;;;;;;;15.55;13.98;;;21.10;99.90;;;;;;5055258;28;20056;-71
2023/06/18 08:08:56;;;;;;;17.38;15.60;;;21.20;99.90;;;;;;5035048;28;20048;-73
2023/06/18 08:11:22;;;;;;;16.13;14.38;;;21.20;99.90;;;;;;5030962;28;20037;-72
2023/06/18 08:13:47;;;;;;;15.23;13.63;;;21.30;99.90;;;;;;5054720;28;20090;-73
2023/06/18 08:16:13;;;;;;;16.27;14.57;;;21.20;99.90;;;;;;5067394;28;20508;-73
2023/06/18 08:18:39;;;;;;;17.05;14.13;;;21.40;99.90;;;;;;5063684;28;20128;-71
2023/06/18 08:21:05;;;;;;;17.02;15.25;;;21.50;99.90;;;;;;5059649;28;20377;-72
2023/06/18 08:23:30;;;;;;;16.90;14.85;;;21.50;99.90;;;;;;5030951;28;20041;-74
2023/06/18 08:25:56;;;;;;;15.30;13.68;;;21.80;99.90;;;;;;5041444;28;20048;-72
2023/06/18 08:28:22;;;;;;;16.92;14.68;;;22.00;99.90;;;;;;5052564;28;20048;-73
2023/06/18 08:30:47;;;;;;;17.25;14.10;;;21.80;99.90;;;;;;5056986;28;20512;-71
2023/06/18 08:33:13;;;;;;;14.98;13.38;;;22.00;99.90;;;;;;5053039;28;20041;-73
2023/06/18 08:35:39;;;;;;;15.25;13.73;;;22.20;99.90;;;;;;5060312;28;20036;-72
2023/06/18 08:38:05;;;;;;;15.40;13.82;;;22.20;99.90;;;;;;5070200;28;20728;-74
2023/06/18 08:41:01;;;;;;;15.73;12.77;;;22.40;99.90;;;;;;5033503;28;20163;-71
2023/06/18 08:43:32;;;;;;;13.38;11.95;;;22.60;99.90;;;;;;5055438;28;20511;-72
2023/06/18 08:46:04;;;;;;;14.00;12.45;;;22.80;99.90;;;;;;5066779;28;20055;-70
2023/06/18 08:48:33;;;;;;;15.82;13.35;;;22.80;99.90;;;;;;5051353;28;20504;-70
2023/06/18 08:51:10;;;;;;;13.13;11.80;;;23.00;99.90;;;;;;5052437;28;20079;-71
2023/06/18 08:54:10;;;;;;;13.45;12.15;;;23.20;99.90;;;;;;5040412;28;20056;-72
2023/06/18 08:56:43;;;;;;;11.70;10.45;;;23.20;99.90;;;;;;5040553;28;20044;-69
2023/06/18 08:59:10;;;;;;;13.63;11.57;;;23.60;99.90;;;;;;5050594;28;20047;-71
2023/06/18 09:01:37;;;;;;;11.63;10.40;;;24.00;99.90;;;;;;5056451;28;20066;-73
2023/06/18 09:04:02;;;;;;;12.57;11.27;;;24.20;99.90;;;;;;5059969;28;20831;-69
2023/06/18 09:06:28;;;;;;;12.45;11.15;;;24.30;99.90;;;;;;5063369;28;20045;-71
2023/06/18 09:08:56;;;;;;;13.38;11.48;;;24.30;99.90;;;;;;5045028;28;20040;-72
2023/06/18 09:11:22;;;;;;;11.88;10.63;;;24.70;99.90;;;;;;5067334;28;20145;-71
2023/06/18 09:13:48;;;;;;;11.23;9.93;;;24.70;99.90;;;;;;5085450;28;20049;-71
2023/06/18 09:16:14;;;;;;;11.32;10.23;;;25.10;99.90;;;;;;5053779;28;20041;-71
2023/06/18 09:18:40;;;;;;;10.70;9.70;;;25.20;99.90;;;;;;5067255;28;20124;-71
2023/06/18 09:21:06;;;;;;;10.70;9.02;;;25.40;99.90;;;;;;5067667;28;20044;-73
2023/06/18 09:23:32;;;;;;;9.95;9.05;;;25.60;99.90;;;;;;5056636;28;20045;-73
2023/06/18 09:25:59;;;;;;;11.35;10.10;;;25.80;99.90;;;;;;5053452;28;20032;-71
2023/06/18 09:28:26;;;;;;;11.07;10.00;;;25.50;99.90;;;;;;5057027;28;20068;-73
2023/06/18 09:30:53;;;;;;;9.82;8.85;;;25.40;99.90;;;;;;5060488;28;20094;-74
2023/06/18 09:33:34;;;;;;;10.10;8.60;;;26.00;99.90;;;;;;5048909;28;20529;-72
2023/06/18 09:36:04;;;;;;;12.10;8.43;;;26.50;99.90;;;;;;5056681;28;20056;-72
2023/06/18 09:38:38;;;;;;;8.85;8.05;;;26.80;99.90;;;;;;5037987;28;20083;-72
2023/06/18 09:41:19;;;;;;;9.52;8.07;;;27.10;99.90;;;;;;5058546;28;20072;-73
2023/06/18 09:43:48;;;;;;;9.98;9.00;;;27.10;99.90;;;;;;5042394;28;20063;-70
2023/06/18 09:46:15;;;;;;;9.02;8.10;;;27.10;99.90;;;;;;5075828;28;20033;-72
2023/06/18 09:48:46;;;;;;;10.25;8.68;;;27.30;99.90;;;;;;5053581;28;20041;-72
2023/06/18 09:51:14;;;;;;;10.70;8.68;;;27.10;99.90;;;;;;5058402;28;20037;-73
2023/06/18 09:53:40;;;;;;;9.82;8.93;;;27.20;99.90;;;;;;5063410;28;20057;-72
2023/06/18 09:56:13;;;;;;;9.30;8.40;;;27.50;99.90;;;;;;5038927;28;20151;-73
2023/06/18 09:58:46;;;;;;;8.75;8.00;;;27.20;99.90;;;;;;5044791;28;20397;-74
2023/06/18 10:01:12;;;;;;;8.40;7.60;;;27.80;99.90;;;;;;5057135;28;20473;-73
2023/06/18 10:03:39;;;;;;;8.88;7.97;;;28.30;99.90;;;;;;5047913;28;20627;-72
2023/06/18 10:06:20;;;;;;;7.70;6.88;;;28.50;20.80;;;;;;5046294;28;20041;-73
2023/06/18 10:08:50;;;;;;;8.63;7.75;;;28.90;1.00;;;;;;5045033;28;20136;-75
2023/06/18 10:11:19;;;;;;;7.35;6.75;;;28.70;1.00;;;;;;5079532;28;20132;-72
2023/06/18 10:13:49;;;;;;;6.85;6.15;;;28.70;1.00;;;;;;5044051;28;20190;-71
2023/06/18 10:16:19;;;;;;;7.43;6.72;;;28.60;1.00;;;;;;5081127;28;20367;-75
2023/06/18 10:18:54;;;;;;;7.38;6.68;;;28.70;99.90;;;;;;5083113;28;20485;-72
2023/06/18 10:21:25;;;;;;;7.60;6.10;;;29.00;99.90;;;;;;5046937;28;20040;-70
2023/06/18 10:23:57;;;;;;;6.95;6.35;;;29.30;99.90;;;;;;5045491;28;20052;-75
2023/06/18 10:26:23;;;;;;;6.50;5.85;;;29.20;99.90;;;;;;5078837;28;20098;-72
2023/06/18 10:28:51;;;;;;;6.25;5.65;;;29.10;99.90;;;;;;5067081;28;20049;-71
2023/06/18 10:31:21;;;;;;;7.55;6.85;;;29.50;99.90;;;;;;5033832;28;20032;-74
2023/06/18 10:33:47;;;;;;;6.95;6.35;;;29.30;99.90;;;;;;5035993;28;20139;-72
2023/06/18 10:36:14;;;;;;;6.95;6.35;;;28.60;99.90;;;;;;5044903;28;20132;-72
2023/06/18 10:38:40;;;;;;;6.20;5.70;;;28.90;99.90;;;;;;5063096;28;20575;-71
2023/06/18 10:41:12;;;;;;;6.75;6.13;;;29.40;99.90;;;;;;5044878;28;20041;-71
2023/06/18 10:43:41;;;;;;;7.40;6.70;;;29.50;99.90;;;;;;5030833;28;20047;-71
2023/06/18 10:46:08;;;;;;;7.05;6.32;;;29.60;99.90;;;;;;5050027;28;20102;-71
2023/06/18 10:48:34;;;;;;;6.45;5.85;;;29.60;99.90;;;;;;5050477;28;20052;-72
2023/06/18 10:51:15;;;;;;;6.82;6.13;;;29.30;99.90;;;;;;5037061;28;20792;-74
2023/06/18 10:53:45;;;;;;;7.50;6.32;;;29.50;99.90;;;;;;5047181;28;20040;-73
2023/06/18 10:56:14;;;;;;;8.07;6.93;;;29.80;99.90;;;;;;5079827;28;20086;-74
2023/06/18 10:58:41;;;;;;;6.78;6.18;;;29.90;99.90;;;;;;5036364;28;21013;-73
2023/06/18 11:01:23;;;;;;;7.15;6.55;;;29.60;99.90;;;;;;5034920;28;20044;-70
2023/06/18 11:04:01;;;;;;;6.90;6.30;;;29.60;99.90;;;;;;5079696;28;20044;-71
2023/06/18 11:06:30;;;;;;;7.18;6.55;;;29.40;99.90;;;;;;5062403;28;20432;-71
2023/06/18 11:08:56;;;;;;;7.60;6.75;;;29.70;99.90;;;;;;5048441;28;20112;-75
2023/06/18 11:11:24;;;;;;;7.20;6.50;;;29.50;99.90;;;;;;5050436;28;20532;-72
2023/06/18 11:13:53;;;;;;;7.10;6.47;;;29.50;99.90;;;;;;5054620;28;20391;-71
2023/06/18 11:16:21;;;;;;;7.32;6.40;;;29.50;99.90;;;;;;5067148;28;20041;-72
2023/06/18 11:18:46;;;;;;;6.65;6.05;;;29.70;99.90;;;;;;5054057;28;20099;-72
2023/06/18 11:21:20;;;;;;;6.93;6.22;;;30.10;99.90;;;;;;5045390;28;20126;-70
2023/06/18 11:23:48;;;;;;;7.70;6.18;;;30.10;99.90;;;;;;5030314;28;20056;-73
2023/06/18 11:26:18;;;;;;;7.40;6.72;;;29.80;99.90;;;;;;5038572;28;20381;-73
2023/06/18 11:28:45;;;;;;;7.75;7.05;;;29.90;99.90;;;;;;5047544;28;20366;-72
2023/06/18 11:31:11;;;;;;;7.90;6.97;;;29.30;99.90;;;;;;5026256;28;20041;-70
2023/06/18 11:33:36;;;;;;;7.40;6.70;;;29.80;99.90;;;;;;5034806;28;20052;-72
2023/06/18 11:36:10;;;;;;;8.48;6.78;;;29.70;99.90;;;;;;5035174;28;20093;-74
2023/06/18 11:38:37;;;;;;;8.68;7.05;;;28.60;99.90;;;;;;5049762;28;20041;-72
2023/06/18 11:41:03;;;;;;;7.00;6.40;;;28.40;99.90;;;;;;5084016;28;20617;-76
2023/06/18 11:43:46;;;;;;;7.10;6.28;;;28.90;99.90;;;;;;5064591;28;20059;-70
2023/06/18 11:46:36;;;;;;;7.35;6.45;;;28.80;99.90;;;;;;5039095;28;20125;-71
2023/06/18 11:49:02;;;;;;;7.38;6.60;;;28.90;99.90;;;;;;5076417;28;20073;-73
2023/06/18 11:51:30;;;;;;;7.50;6.53;;;29.10;99.90;;;;;;5038124;28;20049;-72
2023/06/18 11:53:57;;;;;;;7.63;6.82;;;28.80;99.90;;;;;;5074789;28;20066;-73
2023/06/18 11:56:25;;;;;;;6.93;6.30;;;29.00;99.90;;;;;;5017020;28;20045;-71
2023/06/18 11:58:52;;;;;;;6.90;6.22;;;29.70;99.90;;;;;;5076608;28;20127;-71
2023/06/18 12:01:17;;;;;;;7.10;6.18;;;29.50;97.90;;;;;;5071723;28;20123;-71
2023/06/18 12:03:44;;;;;;;6.70;6.10;;;29.70;99.90;;;;;;5061598;28;20131;-71
2023/06/18 12:06:15;;;;;;;6.43;5.93;;;29.80;92.20;;;;;;5033801;28;20525;-73
2023/06/18 12:08:45;;;;;;;6.68;5.95;;;29.70;36.10;;;;;;5052146;28;20063;-70
2023/06/18 12:11:35;;;;;;;6.65;6.05;;;29.60;77.10;;;;;;5079497;28;20043;-69
2023/06/18 12:14:09;;;;;;;6.45;5.90;;;30.00;56.30;;;;;;5051531;28;20118;-71
2023/06/18 12:16:38;;;;;;;6.35;5.68;;;29.90;65.80;;;;;;5048640;28;20048;-71
2023/06/18 12:19:04;;;;;;;6.57;5.65;;;30.20;65.50;;;;;;5085172;28;20392;-74
2023/06/18 12:21:31;;;;;;;6.95;6.25;;;30.20;47.90;;;;;;5050039;28;20055;-71
2023/06/18 12:23:57;;;;;;;6.53;5.97;;;30.00;65.80;;;;;;5051657;28;20472;-71
2023/06/18 12:26:23;;;;;;;7.38;6.68;;;29.60;99.90;;;;;;5053148;28;20059;-70
2023/06/18 12:28:49;;;;;;;6.60;6.00;;;29.80;99.90;;;;;;5070810;28;20052;-72
2023/06/18 12:31:15;;;;;;;6.68;5.88;;;30.30;99.90;;;;;;5034473;28;20033;-71
2023/06/18 12:33:42;;;;;;;6.78;5.97;;;30.50;93.00;;;;;;5052410;28;20036;-71